Disclaimer

Please do not use the information listed here in-flight or in-navigation, as they are not provided to us by the airports but are provided by volunteers, so they might be outdated.

Search


Regions


Airport information page

Radio informations:
LAVAL INFO - 119.3 MHz

Airport informations:
Latitude: 48° 01' 52.90" N
Longitude: 000° 44' 34.75" W
Elevation: 330 feet - 101 meters
Operating hours: Remarks
Operating agency: Civil government, landing fees and diplomatic clearance may be required
Timezone: UTC+1(+2DT) - Last Sunday in March to last Sunday in October
Fuel: Jet A1, without icing nhibitor.

100/130 MIL Spec, low lead, aviation gasoline (BLUE)

Runway information:
15/33 - 5020 x 98 feet< - >1530 x 30 meters

Recent METARs:
LFOV 211830Z AUTO 09007KT CAVOK 02/M02 Q1014
LFOV 211900Z AUTO 09007KT CAVOK 01/M02 Q1014
LFOV 211930Z AUTO 08006KT CAVOK 01/M02 Q1014

Airport on the map: